Cape York — VRXE9 — position and weather

sailwx.info

Track history (hours):
 
Tides and Currents Weather Stations Pressure Air Temp Water Temp Dewpoint Dewpoint Depression Visibility Wind Speed Wind Dir Waves Ship Positions

Cape York

Last reported at 2017-Jan-18 05:33 UTC. Time now 2017-Feb-22 01:45 UTC.
Position N 18°30' W 066°05'.
Warning: this ship's position is 34 days out of date.

Length 170 m; draft 6.1 m.

Type: Cargo ship. MMSI: 477924000.

Date/timePositionNaut miles runAvg speedWind from/ knotsBaromVisibWave heightAir tempDewpointWater temp
2017-Jan-18 05:33N 18°30' W 066°05'4 3.7
2017-Jan-18 04:22N 18°26' W 066°07'0 0.0
2017-Jan-18 03:33N 18°26' W 066°07'0 0.0
2017-Jan-18 02:33N 18°26' W 066°07'0 0.0
2017-Jan-18 01:33N 18°26' W 066°07'0 0.0
2017-Jan-18 00:33N 18°26' W 066°07'0 0.0
2017-Jan-17 23:33N 18°26' W 066°07'0 0.0
2017-Jan-17 22:33N 18°26' W 066°07'0 0.0
2017-Jan-17 21:33N 18°26' W 066°07'0 0.0
2017-Jan-17 20:33N 18°26' W 066°07'0 0.0
2017-Jan-17 19:33N 18°26' W 066°07'0 0.0
2017-Jan-17 18:33N 18°26' W 066°07'0 0.0
2017-Jan-17 17:33N 18°26' W 066°07'0 0.0
2017-Jan-17 16:33N 18°26' W 066°07'0 0.0
2017-Jan-17 15:33N 18°26' W 066°07'0 0.0
2017-Jan-17 14:33N 18°26' W 066°07'0 0.0
2017-Jan-17 13:33N 18°26' W 066°07'0 0.0
2017-Jan-17 12:33N 18°26' W 066°07'0 0.0
2017-Jan-17 11:33N 18°26' W 066°07'0 0.0
2017-Jan-17 10:33N 18°26' W 066°07'0 0.0
2017-Jan-17 09:33N 18°26' W 066°07'0 0.0
2017-Jan-17 08:33N 18°26' W 066°07'0 0.0
2017-Jan-17 07:33N 18°26' W 066°07'0 0.0
2017-Jan-17 06:33N 18°26' W 066°07'0 0.0
2017-Jan-17 05:33N 18°26' W 066°07'0 0.0
2017-Jan-17 04:33N 18°26' W 066°07'0 0.0
2017-Jan-17 03:33N 18°26' W 066°07'0 0.0
2017-Jan-17 02:33N 18°26' W 066°07'0 0.0
2017-Jan-17 01:33N 18°26' W 066°07'0 0.0
2017-Jan-17 00:33N 18°26' W 066°07'0 0.0
2017-Jan-16 23:33N 18°26' W 066°07'0 0.0
2017-Jan-16 22:33N 18°26' W 066°07'0 0.0
2017-Jan-16 21:33N 18°26' W 066°07'0 0.0
2017-Jan-16 20:33N 18°26' W 066°07'0 0.0
2017-Jan-16 19:33N 18°26' W 066°07'0 0.0
2017-Jan-16 18:33N 18°26' W 066°07'0 0.0
2017-Jan-16 17:33N 18°26' W 066°07'0 0.0
2017-Jan-16 16:33N 18°26' W 066°07'0 0.0
2017-Jan-16 15:33N 18°26' W 066°07'0 0.0
2017-Jan-16 14:33N 18°26' W 066°07'0 0.0
2017-Jan-16 13:33N 18°26' W 066°07'0 0.0
2017-Jan-16 12:33N 18°26' W 066°07'0 0.0
2017-Jan-16 11:33N 18°26' W 066°07'0 0.0
2017-Jan-16 10:33N 18°26' W 066°07'0 0.0
2017-Jan-16 09:33N 18°26' W 066°07'0 0.0
2017-Jan-16 08:33N 18°26' W 066°07'0 0.0
2017-Jan-16 07:32N 18°26' W 066°07'0 0.0
2017-Jan-16 06:33N 18°26' W 066°07'0 0.0
2017-Jan-16 05:33N 18°26' W 066°07'0 0.0
2017-Jan-16 04:33N 18°26' W 066°07'0 0.0
2017-Jan-16 03:33N 18°26' W 066°07'0 0.0
2017-Jan-16 02:33N 18°26' W 066°07'0 0.0
2017-Jan-16 01:33N 18°26' W 066°07'0 0.0
2017-Jan-16 00:33N 18°26' W 066°07'0 0.0
2017-Jan-15 23:32N 18°26' W 066°07'5 4.7
2017-Jan-15 22:33N 18°30' W 066°08'3 3.2
2017-Jan-15 21:32N 18°33' W 066°06'1 1.2
2017-Jan-15 20:31N 18°32' W 066°07'2 1.0
2017-Jan-15 18:10N 18°34' W 066°05'2 2.3
2017-Jan-15 17:29N 18°33' W 066°06'5 3.7
2017-Jan-15 16:09N 18°37' W 066°03'1 1.8
2017-Jan-15 15:19N 18°36' W 066°04'4 1.8
2017-Jan-15 13:22N 18°33' W 066°06'2 2.0
2017-Jan-15 12:33N 18°32' W 066°07'0 0.4
2017-Jan-15 11:33N 18°32' W 066°07'2 0.1
2017-Jan-14 17:12N 18°34' W 066°08'2 1.8
2017-Jan-14 16:16N 18°33' W 066°10'1 0.0
2017-Jan-12 13:06N 18°34' W 066°10'4 0.3
2017-Jan-11 22:12N 18°32' W 066°07'0 0.8
2017-Jan-11 21:33N 18°33' W 066°07'  
Track history (hours):
 
Tides and Currents Weather Stations Pressure Air Temp Water Temp Dewpoint Dewpoint Depression Visibility Wind Speed Wind Dir Waves Ship Positions

Cape York

Last reported at 2017-Jan-18 05:33 UTC. Time now 2017-Feb-22 01:45 UTC.
Position N 18°30' W 066°05'.
Warning: this ship's position is 34 days out of date.

Length 170 m; draft 6.1 m.

Type: Cargo ship. MMSI: 477924000.

Date/timePositionNaut miles runAvg speedWind from/ knotsBaromVisibWave heightAir tempDewpointWater temp
2017-Jan-18 05:33N 18°30' W 066°05'4 3.7
2017-Jan-18 04:22N 18°26' W 066°07'0 0.0
2017-Jan-18 03:33N 18°26' W 066°07'0 0.0
2017-Jan-18 02:33N 18°26' W 066°07'0 0.0
2017-Jan-18 01:33N 18°26' W 066°07'0 0.0
2017-Jan-18 00:33N 18°26' W 066°07'0 0.0
2017-Jan-17 23:33N 18°26' W 066°07'0 0.0
2017-Jan-17 22:33N 18°26' W 066°07'0 0.0
2017-Jan-17 21:33N 18°26' W 066°07'0 0.0
2017-Jan-17 20:33N 18°26' W 066°07'0 0.0
2017-Jan-17 19:33N 18°26' W 066°07'0 0.0
2017-Jan-17 18:33N 18°26' W 066°07'0 0.0
2017-Jan-17 17:33N 18°26' W 066°07'0 0.0
2017-Jan-17 16:33N 18°26' W 066°07'0 0.0
2017-Jan-17 15:33N 18°26' W 066°07'0 0.0
2017-Jan-17 14:33N 18°26' W 066°07'0 0.0
2017-Jan-17 13:33N 18°26' W 066°07'0 0.0
2017-Jan-17 12:33N 18°26' W 066°07'0 0.0
2017-Jan-17 11:33N 18°26' W 066°07'0 0.0
2017-Jan-17 10:33N 18°26' W 066°07'0 0.0
2017-Jan-17 09:33N 18°26' W 066°07'0 0.0
2017-Jan-17 08:33N 18°26' W 066°07'0 0.0
2017-Jan-17 07:33N 18°26' W 066°07'0 0.0
2017-Jan-17 06:33N 18°26' W 066°07'0 0.0
2017-Jan-17 05:33N 18°26' W 066°07'0 0.0
2017-Jan-17 04:33N 18°26' W 066°07'0 0.0
2017-Jan-17 03:33N 18°26' W 066°07'0 0.0
2017-Jan-17 02:33N 18°26' W 066°07'0 0.0
2017-Jan-17 01:33N 18°26' W 066°07'0 0.0
2017-Jan-17 00:33N 18°26' W 066°07'0 0.0
2017-Jan-16 23:33N 18°26' W 066°07'0 0.0
2017-Jan-16 22:33N 18°26' W 066°07'0 0.0
2017-Jan-16 21:33N 18°26' W 066°07'0 0.0
2017-Jan-16 20:33N 18°26' W 066°07'0 0.0
2017-Jan-16 19:33N 18°26' W 066°07'0 0.0
2017-Jan-16 18:33N 18°26' W 066°07'0 0.0
2017-Jan-16 17:33N 18°26' W 066°07'0 0.0
2017-Jan-16 16:33N 18°26' W 066°07'0 0.0
2017-Jan-16 15:33N 18°26' W 066°07'0 0.0
2017-Jan-16 14:33N 18°26' W 066°07'0 0.0
2017-Jan-16 13:33N 18°26' W 066°07'0 0.0
2017-Jan-16 12:33N 18°26' W 066°07'0 0.0
2017-Jan-16 11:33N 18°26' W 066°07'0 0.0
2017-Jan-16 10:33N 18°26' W 066°07'0 0.0
2017-Jan-16 09:33N 18°26' W 066°07'0 0.0
2017-Jan-16 08:33N 18°26' W 066°07'0 0.0
2017-Jan-16 07:32N 18°26' W 066°07'0 0.0
2017-Jan-16 06:33N 18°26' W 066°07'0 0.0
2017-Jan-16 05:33N 18°26' W 066°07'0 0.0
2017-Jan-16 04:33N 18°26' W 066°07'0 0.0
2017-Jan-16 03:33N 18°26' W 066°07'0 0.0
2017-Jan-16 02:33N 18°26' W 066°07'0 0.0
2017-Jan-16 01:33N 18°26' W 066°07'0 0.0
2017-Jan-16 00:33N 18°26' W 066°07'0 0.0
2017-Jan-15 23:32N 18°26' W 066°07'5 4.7
2017-Jan-15 22:33N 18°30' W 066°08'3 3.2
2017-Jan-15 21:32N 18°33' W 066°06'1 1.2
2017-Jan-15 20:31N 18°32' W 066°07'2 1.0
2017-Jan-15 18:10N 18°34' W 066°05'2 2.3
2017-Jan-15 17:29N 18°33' W 066°06'5 3.7
2017-Jan-15 16:09N 18°37' W 066°03'1 1.8
2017-Jan-15 15:19N 18°36' W 066°04'4 1.8
2017-Jan-15 13:22N 18°33' W 066°06'2 2.0
2017-Jan-15 12:33N 18°32' W 066°07'0 0.4
2017-Jan-15 11:33N 18°32' W 066°07'2 0.1
2017-Jan-14 17:12N 18°34' W 066°08'2 1.8
2017-Jan-14 16:16N 18°33' W 066°10'1 0.0
2017-Jan-12 13:06N 18°34' W 066°10'4 0.3
2017-Jan-11 22:12N 18°32' W 066°07'0 0.8
2017-Jan-11 21:33N 18°33' W 066°07'  

Dump ship's entire track history